createdAt,value
2022-08-09T00:02:17.600Z,7.30
2022-08-09T00:07:21.489Z,7.80
2022-08-09T00:12:23.920Z,6.90
2022-08-09T00:18:06.116Z,6.50
2022-08-09T00:22:48.828Z,7.20
2022-08-09T00:27:50.711Z,6.90
2022-08-09T00:32:54.024Z,7.00
2022-08-09T00:37:56.825Z,6.00
2022-08-09T00:44:20.650Z,6.10
2022-08-09T00:48:20.244Z,5.60
2022-08-09T00:53:24.249Z,5.80
2022-08-09T00:58:27.821Z,6.60
2022-08-09T01:03:45.492Z,6.10
2022-08-09T01:08:58.283Z,5.30
2022-08-09T01:14:11.792Z,6.70
2022-08-09T01:19:57.134Z,7.00
2022-08-09T01:25:12.334Z,6.80
2022-08-09T01:30:28.543Z,6.70
2022-08-09T01:35:42.554Z,7.80
2022-08-09T01:40:52.326Z,6.90
2022-08-09T01:46:05.639Z,8.00
2022-08-09T01:51:11.993Z,7.40
2022-08-09T01:56:25.554Z,6.70
2022-08-09T02:01:57.928Z,7.60
2022-08-09T02:07:15.311Z,6.80
2022-08-09T02:12:21.968Z,7.20
2022-08-09T02:18:09.601Z,7.30
2022-08-09T02:22:59.736Z,7.30
2022-08-09T02:28:05.715Z,13.60
2022-08-09T02:33:17.020Z,9.90
2022-08-09T02:38:27.882Z,8.80
2022-08-09T02:43:53.697Z,10.00
2022-08-09T02:48:57.169Z,10.60
2022-08-09T02:54:01.575Z,9.10
2022-08-09T02:59:06.048Z,8.30
2022-08-09T03:04:18.164Z,8.40
2022-08-09T03:09:21.605Z,7.10
2022-08-09T03:14:28.322Z,7.10
2022-08-09T03:19:57.692Z,6.60
2022-08-09T03:25:05.808Z,6.20
2022-08-09T03:30:29.132Z,6.30
2022-08-09T03:36:11.385Z,6.80
2022-08-09T03:40:53.444Z,7.60
2022-08-09T03:46:05.197Z,7.60
2022-08-09T03:51:56.331Z,6.50
2022-08-09T03:56:46.548Z,10.20
2022-08-09T04:01:53.488Z,7.30
2022-08-09T04:06:56.227Z,6.90
2022-08-09T04:12:04.308Z,6.50
2022-08-09T04:17:07.324Z,6.60
2022-08-09T04:22:11.944Z,6.60
2022-08-09T04:27:15.078Z,6.70
2022-08-09T04:32:23.776Z,4.80
2022-08-09T04:37:45.590Z,6.10
2022-08-09T04:42:48.738Z,6.30
2022-08-09T04:48:00.332Z,9.30
2022-08-09T04:53:11.494Z,8.40
2022-08-09T04:58:15.533Z,6.80
2022-08-09T05:03:40.208Z,6.10
2022-08-09T05:08:43.913Z,5.50
2022-08-09T05:13:49.899Z,4.80
2022-08-09T05:18:59.240Z,5.10
2022-08-09T05:24:03.771Z,5.60
2022-08-09T05:29:06.189Z,5.90
2022-08-09T05:34:07.997Z,6.00
2022-08-09T05:39:29.628Z,4.80
2022-08-09T05:44:38.009Z,5.70
2022-08-09T05:50:29.979Z,5.10
2022-08-09T05:55:06.802Z,5.90
2022-08-09T06:00:09.713Z,5.20
2022-08-09T06:05:16.287Z,5.30
2022-08-09T06:10:18.290Z,5.20
2022-08-09T06:15:21.294Z,4.90
2022-08-09T06:20:23.479Z,5.40
2022-08-09T06:25:26.284Z,5.90
2022-08-09T06:30:28.570Z,5.00
2022-08-09T06:35:35.702Z,4.80
2022-08-09T06:40:54.967Z,4.50
2022-08-09T06:46:06.311Z,6.70
2022-08-09T06:51:10.442Z,4.30
2022-08-09T06:56:12.153Z,4.30
2022-08-09T07:01:14.649Z,4.00
2022-08-09T07:06:18.720Z,3.50
2022-08-09T07:11:25.253Z,3.70
2022-08-09T07:16:41.088Z,3.00
2022-08-09T07:21:55.699Z,2.40
2022-08-09T07:27:00.557Z,2.50
2022-08-09T07:32:03.835Z,2.40
2022-08-09T07:37:06.226Z,1.80
2022-08-09T07:42:17.579Z,1.50
2022-08-09T07:47:20.893Z,1.40
2022-08-09T07:52:24.146Z,1.40
2022-08-09T07:57:35.792Z,1.00
2022-08-09T08:02:42.582Z,1.10
2022-08-09T08:08:43.002Z,1.20
2022-08-09T08:13:10.398Z,1.20
2022-08-09T08:18:12.273Z,1.10
2022-08-09T08:23:17.932Z,1.10
2022-08-09T08:28:31.934Z,1.30
2022-08-09T08:33:52.094Z,0.90
2022-08-09T08:38:56.237Z,1.00
2022-08-09T08:44:02.565Z,1.10
2022-08-09T08:49:05.707Z,0.70
2022-08-09T08:54:10.264Z,0.70
2022-08-09T08:59:22.502Z,1.00
2022-08-09T09:04:31.394Z,1.10
2022-08-09T09:09:58.614Z,0.90
2022-08-09T09:15:03.366Z,0.70
2022-08-09T09:20:11.361Z,0.80
2022-08-09T09:26:04.735Z,0.70
2022-08-09T09:36:03.693Z,0.90
2022-08-09T09:41:32.662Z,1.10
2022-08-09T09:46:42.176Z,1.00
2022-08-09T09:51:47.824Z,0.90
2022-08-09T09:58:01.261Z,0.90
2022-08-09T10:02:18.773Z,1.50
2022-08-09T10:07:26.567Z,1.10
2022-08-09T10:12:31.286Z,0.70
2022-08-09T10:17:51.467Z,0.90
2022-08-09T10:23:00.904Z,0.80
2022-08-09T10:28:03.373Z,0.80
2022-08-09T10:33:05.663Z,0.90
2022-08-09T10:38:33.884Z,0.40
2022-08-09T10:43:36.171Z,0.50
2022-08-09T10:48:56.255Z,0.90
2022-08-09T10:54:09.968Z,0.90
2022-08-09T10:59:31.300Z,0.90
2022-08-09T11:04:34.394Z,0.90
2022-08-09T11:09:47.642Z,0.90
2022-08-09T11:15:50.974Z,0.90
2022-08-09T11:21:06.472Z,0.70
2022-08-09T11:26:28.782Z,0.80
2022-08-09T11:31:43.539Z,0.90
2022-08-09T11:36:52.304Z,0.70
2022-08-09T11:41:58.578Z,0.70
2022-08-09T11:47:01.696Z,0.60
2022-08-09T11:53:02.090Z,0.80
2022-08-09T11:57:47.933Z,0.70
2022-08-09T12:03:09.937Z,0.60
2022-08-09T12:08:24.790Z,0.60
2022-08-09T12:14:09.547Z,0.80
2022-08-09T12:18:55.444Z,0.90
2022-08-09T12:24:08.840Z,1.00
2022-08-09T12:29:44.676Z,0.80
2022-08-09T12:34:41.798Z,0.60
2022-08-09T12:39:58.324Z,0.70
2022-08-09T12:45:01.122Z,1.10
2022-08-09T12:50:19.625Z,1.20
2022-08-09T12:56:11.975Z,1.10
2022-08-09T13:00:49.153Z,1.20
2022-08-09T13:06:14.549Z,1.40
2022-08-09T13:11:24.342Z,1.30
2022-08-09T13:16:44.856Z,1.00
2022-08-09T13:23:00.419Z,1.10
2022-08-09T13:27:26.227Z,0.80
2022-08-09T13:32:50.878Z,1.00
2022-08-09T13:37:55.561Z,0.90
2022-08-09T13:42:57.760Z,1.10
2022-08-09T13:47:59.543Z,0.80
2022-08-09T13:53:01.233Z,1.20
2022-08-09T13:58:03.160Z,0.80
2022-08-09T14:03:57.907Z,0.90
2022-08-09T14:08:29.784Z,0.70
2022-08-09T14:14:22.579Z,0.90
2022-08-09T14:18:53.481Z,1.00
2022-08-09T14:24:01.188Z,1.00
2022-08-09T14:29:25.592Z,1.10
2022-08-09T14:34:32.921Z,1.20
2022-08-09T14:39:40.340Z,0.80
2022-08-09T14:44:59.802Z,1.10
2022-08-09T14:50:03.118Z,1.20
2022-08-09T14:55:07.031Z,0.70
2022-08-09T15:00:10.522Z,1.20
2022-08-09T15:05:12.455Z,0.80
2022-08-09T15:10:17.780Z,0.80
2022-08-09T15:15:20.235Z,0.80
2022-08-09T15:21:57.536Z,0.90
2022-08-09T15:25:44.557Z,0.90
2022-08-09T15:31:01.195Z,0.90
2022-08-09T15:36:08.571Z,0.80
2022-08-09T15:41:10.876Z,1.20
2022-08-09T15:46:33.380Z,1.00
2022-08-09T15:52:04.014Z,1.00
2022-08-09T15:56:58.093Z,1.00
2022-08-09T16:01:59.967Z,1.10
2022-08-09T16:07:01.943Z,1.00
2022-08-09T16:12:03.916Z,1.20
2022-08-09T16:17:05.802Z,1.10
2022-08-09T16:22:07.546Z,0.90
2022-08-09T16:27:17.331Z,0.90
2022-08-09T16:32:43.255Z,0.80
2022-08-09T16:37:55.380Z,0.70
2022-08-09T16:42:58.891Z,1.00
2022-08-09T16:48:50.471Z,1.60
2022-08-09T16:53:22.659Z,1.00
2022-08-09T16:58:28.738Z,0.90
2022-08-09T17:03:37.938Z,1.10
2022-08-09T17:09:00.280Z,1.50
2022-08-09T17:14:02.395Z,1.00
2022-08-09T17:19:05.257Z,1.00
2022-08-09T17:24:21.253Z,1.30
2022-08-09T17:29:31.851Z,1.40
2022-08-09T17:35:00.771Z,1.80
2022-08-09T17:40:01.849Z,1.50
2022-08-09T17:45:06.337Z,1.90
2022-08-09T17:50:16.854Z,1.40
2022-08-09T17:55:19.465Z,1.60
2022-08-09T18:00:33.482Z,2.30
2022-08-09T18:05:44.141Z,1.70
2022-08-09T18:10:46.266Z,1.60
2022-08-09T18:16:08.097Z,1.90
2022-08-09T18:21:23.323Z,2.00
2022-08-09T18:26:26.072Z,5.40
2022-08-09T18:31:51.372Z,5.00
2022-08-09T18:36:50.627Z,3.10
2022-08-09T18:41:55.585Z,2.90
2022-08-09T18:47:08.470Z,2.20
2022-08-09T18:52:16.124Z,1.90
2022-08-09T18:57:22.987Z,2.20
2022-08-09T19:02:31.722Z,2.00
2022-08-09T19:07:35.026Z,2.50
2022-08-09T19:12:38.083Z,7.90
2022-08-09T19:17:54.425Z,7.30
2022-08-09T19:22:57.949Z,9.70
2022-08-09T19:28:02.697Z,5.70
2022-08-09T19:33:09.239Z,4.60
2022-08-09T19:38:21.312Z,3.90
2022-08-09T19:44:01.219Z,3.60
2022-08-09T19:49:01.608Z,3.70
2022-08-09T19:54:07.185Z,3.40
2022-08-09T19:59:40.490Z,2.90
2022-08-09T20:04:40.596Z,2.90
2022-08-09T20:09:50.203Z,3.70
2022-08-09T20:14:53.127Z,3.50
2022-08-09T20:19:55.926Z,3.70
2022-08-09T20:24:57.786Z,3.50
2022-08-09T20:30:01.140Z,3.80
2022-08-09T20:35:05.699Z,4.70
2022-08-09T20:40:16.831Z,5.50
2022-08-09T20:45:59.385Z,5.00
2022-08-09T20:50:48.463Z,4.80
2022-08-09T20:56:01.899Z,4.10
2022-08-09T21:01:32.360Z,4.70
2022-08-09T21:06:29.392Z,4.60
2022-08-09T21:16:55.339Z,6.80
2022-08-09T21:21:58.061Z,5.80
2022-08-09T21:27:00.079Z,4.80
2022-08-09T21:32:33.666Z,4.30
2022-08-09T21:37:47.124Z,5.80
2022-08-09T21:42:59.855Z,7.10
2022-08-09T21:48:02.691Z,5.80
2022-08-09T21:53:05.109Z,6.00
2022-08-09T21:58:07.985Z,5.70
2022-08-09T22:03:19.509Z,5.40
2022-08-09T22:08:28.639Z,4.60
2022-08-09T22:13:34.474Z,4.50
2022-08-09T22:18:37.789Z,5.50
2022-08-09T22:24:01.663Z,5.60
2022-08-09T22:29:07.178Z,5.40
2022-08-09T22:34:14.445Z,4.90
2022-08-09T22:39:46.608Z,5.50
2022-08-09T22:44:45.060Z,5.80
2022-08-09T22:49:52.124Z,6.20
2022-08-09T22:55:01.976Z,6.20
2022-08-09T23:00:05.675Z,7.10
2022-08-09T23:05:08.268Z,6.50
2022-08-09T23:10:12.405Z,7.80
2022-08-09T23:15:14.793Z,7.60
2022-08-09T23:20:16.680Z,7.60
2022-08-09T23:25:18.481Z,9.10
2022-08-09T23:30:20.359Z,9.20
2022-08-09T23:35:22.209Z,8.30
2022-08-09T23:40:23.985Z,8.60
2022-08-09T23:45:36.994Z,8.90
2022-08-09T23:50:40.649Z,10.60
2022-08-09T23:55:49.339Z,10.70
